Time;durP1;ratioP1;P1;durP2;ratioP2;P2;SDS_P1;SDS_P2;PMS_P1;PMS_P2;Temp;Humidity;BMP_temperature;BMP_pressure;BME280_temperature;BME280_humidity;BME280_pressure;Samples;Min_cycle;Max_cycle;Signal;HPM_P1;HPM_P2
2022/10/25 00:00:38;;;;;;;2.09;1.99;;;;;;;10.50;76.13;101319.05;461817;115;922517;-76
2022/10/25 00:01:45;;;;;;;2.29;2.09;;;;;;;10.49;76.07;101311.89;461621;115;922519;-76
2022/10/25 00:02:48;;;;;;;1.93;1.83;;;;;;;10.49;76.07;101306.45;461635;115;922524;-76
2022/10/25 00:03:51;;;;;;;2.58;1.98;;;;;;;10.48;76.05;101309.36;461800;115;922555;-76
2022/10/25 00:04:54;;;;;;;1.90;1.75;;;;;;;10.48;76.00;101310.20;461714;115;922477;-76
2022/10/25 00:05:57;;;;;;;1.96;1.86;;;;;;;10.47;75.96;101308.55;461772;115;922555;-76
2022/10/25 00:07:00;;;;;;;2.18;1.99;;;;;;;10.46;75.92;101312.30;461781;115;922498;-75
2022/10/25 00:08:04;;;;;;;1.78;1.68;;;;;;;10.46;75.90;101315.03;461780;115;922542;-75
2022/10/25 00:09:07;;;;;;;4.79;2.12;;;;;;;10.45;75.94;101302.44;461655;115;923028;-76
2022/10/25 00:10:11;;;;;;;1.94;1.76;;;;;;;10.45;75.90;101311.45;461629;115;930342;-75
2022/10/25 00:11:26;;;;;;;1.99;1.82;;;;;;;10.45;75.82;101308.73;461741;115;922774;-75
2022/10/25 00:12:29;;;;;;;1.96;1.76;;;;;;;10.45;75.79;101313.34;461532;115;922812;-74
2022/10/25 00:13:32;;;;;;;2.13;1.92;;;;;;;10.44;75.79;101317.94;461797;115;922569;-75
2022/10/25 00:14:35;;;;;;;1.87;1.77;;;;;;;10.44;75.85;101314.38;461808;115;923013;-75
2022/10/25 00:15:38;;;;;;;2.04;1.82;;;;;;;10.43;75.83;101309.95;461767;115;922508;-75
2022/10/25 00:16:41;;;;;;;2.12;1.96;;;;;;;10.42;75.78;101317.28;462163;114;922416;-75
2022/10/25 00:17:44;;;;;;;2.48;1.84;;;;;;;10.43;75.76;101312.68;462250;114;922576;-77
2022/10/25 00:18:48;;;;;;;2.31;2.00;;;;;;;10.42;75.75;101309.11;462111;114;922514;-76
2022/10/25 00:19:51;;;;;;;1.92;1.80;;;;;;;10.41;75.71;101310.17;462140;114;923109;-76
2022/10/25 00:20:54;;;;;;;4.12;2.03;;;;;;;10.41;75.66;101312.90;462167;114;930301;-75
2022/10/25 00:21:58;;;;;;;2.52;2.19;;;;;;;10.40;75.73;101303.03;462199;114;922606;-76
2022/10/25 00:23:01;;;;;;;2.04;1.94;;;;;;;10.40;75.72;101305.75;462208;114;922562;-76
2022/10/25 00:24:04;;;;;;;1.86;1.76;;;;;;;10.41;75.71;101312.05;462176;114;922677;-76
2022/10/25 00:25:08;;;;;;;2.98;2.12;;;;;;;10.39;75.63;101304.06;462085;114;922901;-74
2022/10/25 00:26:12;;;;;;;2.36;1.93;;;;;;;10.40;75.62;101313.09;461962;114;930220;-76
2022/10/25 00:27:15;;;;;;;3.21;1.84;;;;;;;10.39;75.61;101304.06;462075;114;930393;-76
2022/10/25 00:28:18;;;;;;;2.08;1.97;;;;;;;10.39;75.57;101305.94;462127;114;930747;-76
2022/10/25 00:29:21;;;;;;;2.07;1.76;;;;;;;10.39;75.56;101306.79;462229;114;922886;-75
2022/10/25 00:30:24;;;;;;;2.16;2.04;;;;;;;10.38;75.61;101307.82;465011;114;923448;-74
2022/10/25 00:31:27;;;;;;;2.08;1.90;;;;;;;10.39;75.56;101309.52;465619;114;922519;-76
2022/10/25 00:32:33;;;;;;;1.90;1.80;;;;;;;10.39;75.53;101301.33;461756;115;922506;-76
2022/10/25 00:33:37;;;;;;;2.40;1.68;;;;;;;10.39;75.57;101309.52;461926;113;922511;-76
2022/10/25 00:34:40;;;;;;;2.53;1.88;;;;;;;10.39;75.54;101309.52;469416;113;922516;-76
2022/10/25 00:35:43;;;;;;;2.04;1.91;;;;;;;10.39;75.45;101309.52;469548;113;922473;-76
2022/10/25 00:36:46;;;;;;;2.44;2.27;;;;;;;10.40;75.41;101318.53;469622;113;923110;-76
2022/10/25 00:37:49;;;;;;;2.30;1.91;;;;;;;10.39;75.48;101308.67;469580;113;922670;-76
2022/10/25 00:38:55;;;;;;;1.80;1.70;;;;;;;10.38;75.35;101313.27;469477;113;922990;-76
2022/10/25 00:39:58;;;;;;;1.93;1.70;;;;;;;10.37;75.39;101308.85;469381;113;922936;-76
2022/10/25 00:41:01;;;;;;;2.21;1.77;;;;;;;10.37;75.41;101316.19;469608;113;922502;-75
2022/10/25 00:42:04;;;;;;;2.02;1.92;;;;;;;10.37;75.41;101316.19;469532;113;922807;-75
2022/10/25 00:43:08;;;;;;;1.94;1.84;;;;;;;10.36;75.41;101315.37;468701;113;922909;-76
2022/10/25 00:44:41;;;;;;;3.25;2.06;;;;;;;10.37;75.40;101308.00;462163;114;922983;-76
2022/10/25 00:45:44;;;;;;;1.98;1.88;;;;;;;10.37;75.34;101313.46;462086;114;922572;-74
2022/10/25 00:46:47;;;;;;;2.03;1.93;;;;;;;10.36;75.34;101309.08;462234;114;922704;-75
2022/10/25 00:48:05;;;;;;;2.08;1.92;;;;;;;10.34;75.32;101316.59;462219;114;922950;-76
2022/10/25 00:49:12;;;;;;;2.17;2.07;;;;;;;10.32;75.35;101311.33;462070;114;923084;-75
2022/10/25 00:50:33;;;;;;;1.93;1.83;;;;;;;10.31;75.43;101315.09;462014;114;922906;-74
2022/10/25 00:51:49;;;;;;;2.50;2.30;;;;;;;10.30;75.38;101310.70;461962;114;923110;-75
2022/10/25 00:52:55;;;;;;;3.37;2.22;;;;;;;10.30;75.42;101318.03;461186;115;922517;-77
2022/10/25 00:53:58;;;;;;;1.98;1.87;;;;;;;10.29;75.42;101319.91;461516;115;922477;-77
2022/10/25 00:55:04;;;;;;;2.56;2.43;;;;;;;10.29;75.44;101319.06;461745;115;922337;-77
2022/10/25 00:56:14;;;;;;;2.45;2.25;;;;;;;10.29;75.53;101317.18;461567;115;922566;-77
2022/10/25 00:57:39;;;;;;;2.57;2.24;;;;;;;10.29;75.44;101313.61;461596;115;922525;-76
2022/10/25 00:58:46;;;;;;;2.62;2.40;;;;;;;10.29;75.44;101319.91;461295;115;922901;-76
2022/10/25 00:59:49;;;;;;;2.52;2.34;;;;;;;10.28;75.43;101310.04;460960;115;922530;-76
2022/10/25 01:00:52;;;;;;;2.79;2.48;;;;;;;10.28;75.47;101310.04;461594;115;923092;-75
2022/10/25 01:01:56;;;;;;;2.08;1.94;;;;;;;10.28;75.40;101311.92;461805;115;922620;-74
2022/10/25 01:02:59;;;;;;;2.44;2.24;;;;;;;10.28;75.37;101310.04;461720;115;922518;-76
2022/10/25 01:04:06;;;;;;;2.21;2.01;;;;;;;10.28;75.36;101309.19;461782;115;923354;-74
2022/10/25 01:05:09;;;;;;;1.94;1.84;;;;;;;10.28;75.35;101306.47;461593;115;923045;-76
2022/10/25 01:06:20;;;;;;;1.97;1.87;;;;;;;10.27;75.40;101305.62;461737;115;922530;-75
2022/10/25 01:07:23;;;;;;;2.12;1.93;;;;;;;10.28;75.45;101306.47;461351;115;922437;-76
2022/10/25 01:08:26;;;;;;;1.71;1.61;;;;;;;10.27;75.29;101311.07;461781;115;922422;-77
2022/10/25 01:09:34;;;;;;;1.85;1.75;;;;;;;10.26;75.29;101311.25;461761;115;922479;-77
2022/10/25 01:10:38;;;;;;;1.82;1.71;;;;;;;10.25;75.26;101304.14;461621;115;922619;-75
2022/10/25 01:11:41;;;;;;;2.71;1.94;;;;;;;10.23;75.21;101317.95;461726;115;922636;-75
2022/10/25 01:12:45;;;;;;;1.80;1.70;;;;;;;10.22;75.18;101310.81;461851;115;922539;-75
2022/10/25 01:13:50;;;;;;;1.73;1.63;;;;;;;10.21;75.19;101311.84;461292;115;922588;-75
2022/10/25 01:14:54;;;;;;;1.78;1.68;;;;;;;10.19;75.17;101311.22;461636;115;922465;-76
2022/10/25 01:16:13;;;;;;;2.37;1.79;;;;;;;10.18;75.27;101306.80;461799;114;930349;-76
2022/10/25 01:17:32;;;;;;;1.88;1.77;;;;;;;10.17;75.28;101313.28;445977;119;923036;-76
2022/10/25 01:18:42;;;;;;;1.83;1.73;;;;;;;10.16;75.20;101313.44;462009;114;922637;-75
2022/10/25 01:20:14;;;;;;;1.88;1.78;;;;;;;10.14;75.24;101310.93;461432;114;922481;-76
2022/10/25 01:21:51;;;;;;;1.81;1.71;;;;;;;10.13;75.37;101303.78;462032;114;925685;-75
2022/10/25 01:23:00;;;;;;;1.87;1.77;;;;;;;10.11;75.37;101305.00;462036;114;922534;-75
2022/10/25 01:24:31;;;;;;;1.86;1.76;;;;;;;10.08;75.49;101300.80;462026;114;922883;-75
2022/10/25 01:26:02;;;;;;;1.67;1.57;;;;;;;10.07;75.69;101303.71;461890;114;923145;-76
2022/10/25 01:27:23;;;;;;;1.61;1.51;;;;;;;10.05;75.63;101301.17;461901;114;930433;-75
2022/10/25 01:28:27;;;;;;;;;;;;;;;10.02;75.69;101299.70;465700;114;922240;-75
2022/10/25 01:29:43;;;;;;;1.96;1.86;;;;;;;9.99;75.71;101300.06;462283;114;922454;-77
2022/10/25 01:31:06;;;;;;;1.76;1.66;;;;;;;9.95;75.75;101301.50;461500;115;930222;-76
2022/10/25 01:32:13;;;;;;;2.20;1.89;;;;;;;9.93;75.86;101297.27;467000;113;922901;-76
2022/10/25 01:33:47;;;;;;;2.31;2.10;;;;;;;9.89;76.01;101291.37;468925;113;922940;-77
2022/10/25 01:34:54;;;;;;;1.84;1.74;;;;;;;9.88;75.90;101292.40;455299;116;922683;-76
2022/10/25 01:36:07;;;;;;;2.12;1.93;;;;;;;9.87;75.97;101306.20;455781;114;922574;-75
2022/10/25 01:37:25;;;;;;;1.91;1.77;;;;;;;9.84;75.96;101296.55;463914;114;922522;-76
2022/10/25 01:38:32;;;;;;;2.03;1.93;;;;;;;9.83;75.99;101303.03;463895;114;923151;-75
2022/10/25 01:39:39;;;;;;;2.64;2.21;;;;;;;9.82;76.00;101305.94;466464;112;922690;-75
2022/10/25 01:40:45;;;;;;;2.24;2.08;;;;;;;9.82;76.02;101300.49;472052;112;922532;-76
2022/10/25 01:42:06;;;;;;;2.33;1.96;;;;;;;9.80;75.99;101313.48;472325;112;922650;-75
2022/10/25 01:43:31;;;;;;;3.17;1.98;;;;;;;9.79;76.00;101312.63;472273;112;922495;-75
2022/10/25 01:44:50;;;;;;;2.06;1.79;;;;;;;9.78;75.96;101315.53;472298;112;922467;-75
2022/10/25 01:45:56;;;;;;;3.04;2.08;;;;;;;9.74;75.90;101315.09;472200;112;922465;-77
2022/10/25 01:47:09;;;;;;;2.59;1.51;;;;;;;9.71;75.91;101312.73;472271;112;922535;-76
2022/10/25 01:48:16;;;;;;;1.89;1.73;;;;;;;9.69;76.00;101311.25;472198;112;923031;-76
2022/10/25 01:49:39;;;;;;;1.81;1.67;;;;;;;9.67;75.95;101307.86;471449;112;922532;-76
2022/10/25 01:50:45;;;;;;;1.82;1.65;;;;;;;9.64;76.08;101311.83;472125;112;922483;-75
2022/10/25 01:51:48;;;;;;;2.39;2.19;;;;;;;9.62;76.13;101313.89;469681;112;922532;-76
2022/10/25 01:52:51;;;;;;;2.06;1.88;;;;;;;9.60;76.15;101307.78;464148;114;922652;-75
2022/10/25 01:53:54;;;;;;;2.00;1.74;;;;;;;9.60;76.15;101307.78;464072;114;922483;-75
2022/10/25 01:54:57;;;;;;;1.96;1.86;;;;;;;9.58;76.06;101305.27;464127;114;922820;-77
2022/10/25 01:56:03;;;;;;;2.34;1.62;;;;;;;9.57;76.03;101306.30;464125;114;922536;-76
2022/10/25 01:57:22;;;;;;;1.98;1.84;;;;;;;9.55;76.11;101302.91;463947;114;922536;-75
2022/10/25 01:58:46;;;;;;;3.08;1.90;;;;;;;9.53;76.02;101310.45;463859;114;922837;-75
2022/10/25 02:00:06;;;;;;;1.74;1.64;;;;;;;9.52;76.19;101302.45;463896;114;922704;-75
2022/10/25 02:01:23;;;;;;;2.20;1.97;;;;;;;9.50;76.16;101313.53;463346;114;923661;-75
2022/10/25 02:02:54;;;;;;;1.79;1.69;;;;;;;9.47;76.33;101305.76;447357;118;922889;-75
2022/10/25 02:04:01;;;;;;;2.60;1.90;;;;;;;9.46;76.30;101306.78;463863;114;922691;-75
2022/10/25 02:05:16;;;;;;;2.51;1.99;;;;;;;9.44;76.32;101311.56;463749;114;922619;-77
2022/10/25 02:06:25;;;;;;;2.17;1.99;;;;;;;9.43;76.33;101309.02;463877;114;922567;-74
2022/10/25 02:07:38;;;;;;;1.98;1.66;;;;;;;9.40;76.33;101317.58;463848;114;922549;-76
2022/10/25 02:08:47;;;;;;;1.69;1.59;;;;;;;9.38;76.33;101325.92;463916;114;923008;-75
2022/10/25 02:10:02;;;;;;;1.68;1.58;;;;;;;9.36;76.36;101322.56;455319;116;923078;-76
2022/10/25 02:11:21;;;;;;;1.88;1.78;;;;;;;9.34;76.42;101318.33;457180;114;922768;-76
2022/10/25 02:12:33;;;;;;;2.17;2.04;;;;;;;9.34;76.62;101319.18;463883;114;922925;-76
2022/10/25 02:13:40;;;;;;;1.81;1.69;;;;;;;9.35;76.71;101320.88;463216;114;922522;-75
2022/10/25 02:14:46;;;;;;;2.07;1.92;;;;;;;9.36;76.65;101321.72;463627;114;922911;-75
2022/10/25 02:16:02;;;;;;;2.31;1.96;;;;;;;9.36;76.67;101327.16;463363;114;923049;-75
2022/10/25 02:17:12;;;;;;;2.05;1.81;;;;;;;9.37;76.65;101328.86;463933;114;923007;-75
2022/10/25 02:18:18;;;;;;;3.32;1.93;;;;;;;9.37;76.67;101329.67;463734;114;922463;-75
2022/10/25 02:19:33;;;;;;;1.85;1.75;;;;;;;9.38;76.76;101335.97;463966;114;922535;-77
2022/10/25 02:20:36;;;;;;;2.21;2.11;;;;;;;9.37;76.79;101326.95;458181;114;922542;-76
2022/10/25 02:21:40;;;;;;;2.06;1.65;;;;;;;9.37;76.71;101324.23;464160;114;923271;-77
2022/10/25 02:22:45;;;;;;;1.89;1.79;;;;;;;9.37;76.69;101329.67;463966;114;922645;-75
2022/10/25 02:23:49;;;;;;;1.92;1.80;;;;;;;9.37;76.71;101321.51;463946;114;922714;-76
2022/10/25 02:24:55;;;;;;;4.82;1.83;;;;;;;9.37;76.74;101324.23;464065;114;923079;-75
2022/10/25 02:25:59;;;;;;;2.18;2.06;;;;;;;9.36;76.63;101321.72;463915;114;922369;-77
2022/10/25 02:27:05;;;;;;;1.91;1.76;;;;;;;9.35;76.71;101323.59;464064;114;922682;-76
2022/10/25 02:28:12;;;;;;;2.22;2.05;;;;;;;9.37;76.65;101328.86;464007;114;922557;-76
2022/10/25 02:29:17;;;;;;;2.33;1.99;;;;;;;9.35;76.66;101315.43;463944;114;923089;-74
2022/10/25 02:30:20;;;;;;;1.91;1.81;;;;;;;9.36;76.64;101311.69;464023;114;923119;-75
2022/10/25 02:31:24;;;;;;;3.03;1.84;;;;;;;9.36;76.66;101316.28;464169;114;922502;-75
2022/10/25 02:32:29;;;;;;;2.21;1.95;;;;;;;9.36;76.68;101322.56;464038;114;922508;-75
2022/10/25 02:33:32;;;;;;;2.46;1.94;;;;;;;9.36;76.71;101317.12;463952;114;922657;-75
2022/10/25 02:34:35;;;;;;;4.25;2.37;;;;;;;9.37;76.76;101323.41;463035;114;922581;-76
2022/10/25 02:35:38;;;;;;;1.92;1.82;;;;;;;9.36;76.72;101325.29;464059;112;922656;-76
2022/10/25 02:36:41;;;;;;;2.06;1.95;;;;;;;9.35;76.57;101314.58;471362;112;922770;-75
2022/10/25 02:37:44;;;;;;;5.55;1.87;;;;;;;9.33;76.61;101313.91;471368;112;922487;-75
2022/10/25 02:38:50;;;;;;;2.26;2.11;;;;;;;9.32;76.51;101318.52;471229;112;922448;-76
2022/10/25 02:39:52;;;;;;;2.49;2.32;;;;;;;9.31;76.61;101318.72;471129;112;930439;-75
2022/10/25 02:40:56;;;;;;;2.22;2.09;;;;;;;9.31;76.59;101322.30;471380;112;922592;-73
2022/10/25 02:42:01;;;;;;;2.26;2.01;;;;;;;9.30;76.54;101323.31;471311;112;922983;-75
2022/10/25 02:43:04;;;;;;;2.25;1.97;;;;;;;9.29;76.57;101316.18;471307;112;922538;-74
2022/10/25 02:44:07;;;;;;;2.27;2.08;;;;;;;9.28;76.60;101313.64;471396;112;922684;-75
2022/10/25 02:45:10;;;;;;;2.24;2.09;;;;;;;9.27;76.59;101315.52;471384;112;922559;-74
2022/10/25 02:46:15;;;;;;;2.02;1.77;;;;;;;9.26;76.59;101310.28;471350;112;922946;-75
2022/10/25 02:47:20;;;;;;;2.13;2.03;;;;;;;9.26;76.61;101313.00;471191;112;922734;-75
2022/10/25 02:48:23;;;;;;;1.82;1.72;;;;;;;9.26;76.65;101310.28;471441;112;922981;-75
2022/10/25 02:49:27;;;;;;;2.34;2.15;;;;;;;9.25;76.55;101312.16;471327;112;922620;-76
2022/10/25 02:50:30;;;;;;;2.10;1.90;;;;;;;9.24;76.53;101306.89;471319;112;922593;-75
2022/10/25 02:51:33;;;;;;;2.25;2.06;;;;;;;9.23;76.51;101322.38;470860;112;930374;-76
2022/10/25 02:52:36;;;;;;;2.19;2.03;;;;;;;9.20;76.51;101315.45;463128;114;922642;-75
2022/10/25 02:53:39;;;;;;;1.86;1.76;;;;;;;9.19;76.59;101316.48;463077;114;922556;-74
2022/10/25 02:54:42;;;;;;;2.98;2.23;;;;;;;9.19;76.53;101321.06;463130;114;923025;-75
2022/10/25 02:55:45;;;;;;;2.48;2.31;;;;;;;9.18;76.51;101317.50;463104;114;922650;-76
2022/10/25 02:56:51;;;;;;;2.50;2.30;;;;;;;9.17;76.55;101310.36;463129;114;922861;-76
2022/10/25 02:57:53;;;;;;;2.15;2.05;;;;;;;9.18;76.57;101317.50;462937;114;922588;-76
2022/10/25 02:58:57;;;;;;;2.13;2.03;;;;;;;9.17;76.63;101312.23;463085;114;922983;-76
2022/10/25 03:00:00;;;;;;;2.31;2.11;;;;;;;9.17;76.67;101312.23;463014;114;922840;-75
2022/10/25 03:01:04;;;;;;;2.31;2.16;;;;;;;9.19;76.80;101312.91;463060;114;922469;-76
2022/10/25 03:02:07;;;;;;;3.97;2.39;;;;;;;9.20;76.84;101315.45;463009;114;922685;-76
2022/10/25 03:03:10;;;;;;;2.46;2.26;;;;;;;9.21;76.88;101313.54;463103;114;922562;-75
2022/10/25 03:04:13;;;;;;;2.86;2.29;;;;;;;9.22;76.85;101323.40;463070;114;922835;-76
2022/10/25 03:05:16;;;;;;;2.59;2.39;;;;;;;9.24;76.87;101323.22;463095;114;922616;-75
2022/10/25 03:06:20;;;;;;;2.46;2.33;;;;;;;9.24;76.82;101321.34;463069;114;922540;-76
2022/10/25 03:07:23;;;;;;;2.52;2.41;;;;;;;9.26;76.90;101323.89;463114;114;924132;-76
2022/10/25 03:08:27;;;;;;;2.65;2.45;;;;;;;9.26;76.86;101319.30;463140;114;923323;-76
2022/10/25 03:09:30;;;;;;;2.72;2.49;;;;;;;9.26;76.83;101324.73;462976;114;922564;-77
2022/10/25 03:10:36;;;;;;;3.36;2.66;;;;;;;9.26;76.77;101316.58;463091;114;930258;-77
2022/10/25 03:11:39;;;;;;;2.41;2.28;;;;;;;9.26;76.86;101324.73;462958;114;922548;-76
2022/10/25 03:12:42;;;;;;;2.76;2.58;;;;;;;9.26;76.92;101322.02;463102;114;922481;-76
2022/10/25 03:13:45;;;;;;;3.25;2.94;;;;;;;9.29;76.93;101331.66;463078;114;923006;-76
2022/10/25 03:14:48;;;;;;;3.61;3.35;;;;;;;9.29;76.82;101327.06;463124;114;922532;-76
2022/10/25 03:15:50;;;;;;;3.27;3.00;;;;;;;9.29;76.79;101324.34;463092;114;922623;-78
2022/10/25 03:16:53;;;;;;;3.18;2.98;;;;;;;9.29;76.80;101318.91;463107;114;922484;-76
2022/10/25 03:17:56;;;;;;;3.17;2.92;;;;;;;9.28;76.71;101317.21;463112;114;922459;-76
2022/10/25 03:18:59;;;;;;;3.09;2.87;;;;;;;9.27;76.77;101320.95;463038;114;922875;-74
2022/10/25 03:20:03;;;;;;;3.31;2.83;;;;;;;9.29;76.65;101309.89;463078;114;922573;-77
2022/10/25 03:21:06;;;;;;;3.28;3.08;;;;;;;9.27;76.69;101310.07;463078;114;922538;-75
2022/10/25 03:22:09;;;;;;;3.19;2.86;;;;;;;9.26;76.64;101311.13;463011;114;922422;-75
2022/10/25 03:23:12;;;;;;;3.27;3.07;;;;;;;9.28;76.75;101309.05;463029;114;930643;-75
2022/10/25 03:24:15;;;;;;;3.24;3.04;;;;;;;9.29;76.73;101318.05;463051;114;922521;-75
2022/10/25 03:25:18;;;;;;;3.34;3.14;;;;;;;9.29;76.69;101312.61;463101;114;922700;-75
2022/10/25 03:26:21;;;;;;;3.17;2.97;;;;;;;9.29;76.67;101321.63;463138;114;923008;-76
2022/10/25 03:27:24;;;;;;;3.38;3.08;;;;;;;9.29;76.71;101318.05;463152;114;922595;-75
2022/10/25 03:28:29;;;;;;;3.19;2.55;;;;;;;9.29;76.65;101331.66;463087;114;922529;-77
2022/10/25 03:29:32;;;;;;;3.09;2.88;;;;;;;9.28;76.65;101325.37;462908;114;923027;-76
2022/10/25 03:30:35;;;;;;;3.02;2.79;;;;;;;9.26;76.60;101324.73;463017;114;930479;-76
2022/10/25 03:31:38;;;;;;;3.99;2.60;;;;;;;9.26;76.69;101322.02;463063;114;922543;-75
2022/10/25 03:32:42;;;;;;;2.87;2.67;;;;;;;9.25;76.67;101322.20;470581;112;922984;-75
2022/10/25 03:33:46;;;;;;;3.12;2.85;;;;;;;9.25;76.59;101320.32;471205;112;930377;-75
2022/10/25 03:34:49;;;;;;;2.92;2.61;;;;;;;9.25;76.54;101320.32;458248;114;922529;-75
2022/10/25 03:35:53;;;;;;;3.08;2.87;;;;;;;9.25;76.59;101314.03;457564;114;925113;-76
2022/10/25 03:36:57;;;;;;;3.10;2.71;;;;;;;9.24;76.56;101320.50;463549;114;922480;-75
2022/10/25 03:38:00;;;;;;;4.60;3.98;;;;;;;9.23;76.62;101314.21;463551;114;923017;-75
2022/10/25 03:39:03;;;;;;;3.77;3.29;;;;;;;9.24;76.65;101317.78;463588;114;923089;-75
2022/10/25 03:40:07;;;;;;;3.11;2.81;;;;;;;9.24;76.54;101323.22;463664;114;922468;-76
2022/10/25 03:41:10;;;;;;;3.12;2.89;;;;;;;9.23;76.60;101319.66;463610;114;922539;-75
2022/10/25 03:42:13;;;;;;;2.80;2.60;;;;;;;9.22;76.60;101320.68;463675;114;922981;-75
2022/10/25 03:43:16;;;;;;;2.89;2.70;;;;;;;9.22;76.46;101315.23;463652;114;922978;-76
2022/10/25 03:44:19;;;;;;;2.98;2.73;;;;;;;9.21;76.54;101314.39;463642;114;922671;-77
2022/10/25 03:45:23;;;;;;;3.00;2.80;;;;;;;9.23;76.59;101314.21;463653;114;922471;-77
2022/10/25 03:46:26;;;;;;;2.87;2.67;;;;;;;9.23;76.60;101319.66;463705;114;922502;-76
2022/10/25 03:47:29;;;;;;;3.46;3.16;;;;;;;9.24;76.52;101325.94;463699;114;922552;-76
2022/10/25 03:48:32;;;;;;;3.08;2.81;;;;;;;9.23;76.58;101322.38;463673;114;922602;-76
2022/10/25 03:49:35;;;;;;;3.14;2.77;;;;;;;9.24;76.43;101320.50;463663;114;923164;-76
2022/10/25 03:50:38;;;;;;;3.56;2.74;;;;;;;9.23;76.55;101327.81;463692;114;922524;-76
2022/10/25 03:51:41;;;;;;;3.65;3.21;;;;;;;9.22;76.44;101328.84;462131;114;922589;-76
2022/10/25 03:52:44;;;;;;;2.99;2.79;;;;;;;9.21;76.53;101329.87;455679;116;923078;-75
2022/10/25 03:53:47;;;;;;;3.08;2.87;;;;;;;9.19;76.47;101324.64;455665;116;922639;-75
2022/10/25 03:54:50;;;;;;;3.06;2.84;;;;;;;9.19;76.37;101323.79;455663;116;922466;-75
2022/10/25 03:55:53;;;;;;;2.71;2.51;;;;;;;9.18;76.42;101324.81;455713;116;923065;-75
2022/10/25 03:56:56;;;;;;;2.96;2.72;;;;;;;9.18;76.43;101324.81;455699;116;922482;-76
2022/10/25 03:57:59;;;;;;;4.27;2.67;;;;;;;9.17;76.42;101320.41;455612;116;922953;-73
2022/10/25 03:59:02;;;;;;;2.91;2.64;;;;;;;9.18;76.43;101319.38;455636;116;923237;-74
2022/10/25 04:00:07;;;;;;;2.87;2.69;;;;;;;9.19;76.47;101321.92;455573;116;922552;-75
2022/10/25 04:01:15;;;;;;;3.31;3.02;;;;;;;9.20;76.54;101320.05;455470;116;922543;-75
2022/10/25 04:02:18;;;;;;;3.08;2.87;;;;;;;9.21;76.55;101319.83;455621;116;922692;-75
2022/10/25 04:03:21;;;;;;;3.00;2.73;;;;;;;9.24;76.57;101317.78;455658;116;922635;-76
2022/10/25 04:04:24;;;;;;;2.75;2.61;;;;;;;9.24;76.59;101321.34;455607;114;922995;-76
2022/10/25 04:05:28;;;;;;;3.76;3.46;;;;;;;9.24;76.46;101317.78;455602;116;922586;-75
2022/10/25 04:06:31;;;;;;;3.44;3.14;;;;;;;9.23;76.47;101325.09;455503;116;922599;-76
2022/10/25 04:07:34;;;;;;;3.12;2.49;;;;;;;9.24;76.44;101321.34;455593;116;930562;-75
2022/10/25 04:08:37;;;;;;;3.20;3.00;;;;;;;9.23;76.44;101325.09;455604;116;922539;-76
2022/10/25 04:09:40;;;;;;;3.08;2.88;;;;;;;9.23;76.37;101322.38;455598;116;922512;-75
2022/10/25 04:10:43;;;;;;;3.28;2.98;;;;;;;9.22;76.45;101315.23;455667;116;922531;-76
2022/10/25 04:11:46;;;;;;;3.60;3.34;;;;;;;9.21;76.35;101322.55;455644;116;922507;-75
2022/10/25 04:12:51;;;;;;;4.62;4.16;;;;;;;9.23;76.40;101322.38;455630;116;923131;-75
2022/10/25 04:13:54;;;;;;;4.13;3.74;;;;;;;9.23;76.27;101322.38;455452;116;923047;-75
2022/10/25 04:14:57;;;;;;;5.86;3.93;;;;;;;9.22;76.23;101323.40;455534;116;922563;-76
2022/10/25 04:16:06;;;;;;;4.24;3.85;;;;;;;9.22;76.22;101315.23;456989;114;922974;-76
2022/10/25 04:17:09;;;;;;;4.41;4.03;;;;;;;9.21;76.18;101316.27;463230;114;922550;-76
2022/10/25 04:18:12;;;;;;;3.77;3.51;;;;;;;9.21;76.24;101324.42;463623;114;922480;-75
2022/10/25 04:19:15;;;;;;;4.84;4.37;;;;;;;9.20;76.24;101320.05;463613;114;922571;-75
2022/10/25 04:20:19;;;;;;;3.93;3.63;;;;;;;9.20;76.25;101317.33;463591;114;923045;-76
2022/10/25 04:21:22;;;;;;;4.35;4.02;;;;;;;9.19;76.18;101316.48;458670;115;930568;-76
2022/10/25 04:22:25;;;;;;;5.74;4.03;;;;;;;9.20;76.16;101320.05;458936;114;930466;-77
2022/10/25 04:23:30;;;;;;;4.24;3.94;;;;;;;9.20;76.13;101311.87;463641;114;922454;-75
2022/10/25 04:24:33;;;;;;;4.32;3.92;;;;;;;9.20;76.11;101322.77;463496;114;930974;-75
2022/10/25 04:25:36;;;;;;;4.40;4.03;;;;;;;9.20;76.22;101318.17;463687;114;922486;-75
2022/10/25 04:26:39;;;;;;;4.57;4.21;;;;;;;9.21;76.23;101325.27;463718;114;922545;-76
2022/10/25 04:27:42;;;;;;;4.06;3.76;;;;;;;9.23;76.24;101321.53;463604;114;922723;-76
2022/10/25 04:28:53;;;;;;;3.86;3.27;;;;;;;9.24;76.20;101329.51;457751;114;922385;-77
2022/10/25 04:29:56;;;;;;;3.94;3.64;;;;;;;9.25;76.24;101324.91;458045;114;922634;-76
2022/10/25 04:30:59;;;;;;;4.02;3.70;;;;;;;9.26;76.33;101324.73;463670;114;930951;-74
2022/10/25 04:32:02;;;;;;;3.90;3.45;;;;;;;9.27;76.36;101331.84;458331;114;923119;-75
2022/10/25 04:33:06;;;;;;;4.20;3.76;;;;;;;9.28;76.35;101336.26;453638;117;922571;-76
2022/10/25 04:34:09;;;;;;;4.28;3.88;;;;;;;9.29;76.35;101332.51;459113;114;923399;-76
2022/10/25 04:35:12;;;;;;;3.79;3.41;;;;;;;9.30;76.32;101339.65;469211;112;930477;-76
2022/10/25 04:36:15;;;;;;;3.37;3.17;;;;;;;9.30;76.29;101328.77;471334;112;922688;-76
2022/10/25 04:37:18;;;;;;;4.33;3.51;;;;;;;9.31;76.30;101337.77;471321;112;922768;-77
2022/10/25 04:38:22;;;;;;;4.34;3.70;;;;;;;9.31;76.29;101343.22;471378;112;922469;-77
2022/10/25 04:39:25;;;;;;;4.48;3.52;;;;;;;9.31;76.30;101344.06;471261;112;922528;-76
2022/10/25 04:40:28;;;;;;;3.91;3.61;;;;;;;9.32;76.38;101350.35;471264;112;930497;-76
2022/10/25 04:41:30;;;;;;;3.71;3.44;;;;;;;9.31;76.29;101346.78;471304;112;922420;-76
2022/10/25 04:42:34;;;;;;;3.77;3.50;;;;;;;9.32;76.28;101348.45;471454;112;922627;-75
2022/10/25 04:43:37;;;;;;;12.23;3.61;;;;;;;9.33;76.35;101346.58;471268;112;922935;-76
2022/10/25 04:44:40;;;;;;;4.50;3.58;;;;;;;9.35;76.37;101348.09;471378;112;922778;-75
2022/10/25 04:45:43;;;;;;;3.76;3.48;;;;;;;9.36;76.38;101340.77;471384;112;922463;-77
2022/10/25 04:46:46;;;;;;;4.19;3.89;;;;;;;9.37;76.40;101346.00;471404;112;922499;-76
2022/10/25 04:47:51;;;;;;;3.93;3.58;;;;;;;9.40;76.38;101344.80;471183;112;922957;-75
2022/10/25 04:48:54;;;;;;;3.76;3.46;;;;;;;9.40;76.45;101342.92;471394;112;922596;-76
2022/10/25 04:49:57;;;;;;;4.86;4.48;;;;;;;9.41;76.31;101341.05;471345;112;922785;-76
2022/10/25 04:51:00;;;;;;;4.08;3.63;;;;;;;9.41;76.29;101338.33;471403;112;922859;-77
2022/10/25 04:52:03;;;;;;;4.04;3.74;;;;;;;9.43;76.37;101338.96;466939;112;922490;-77
2022/10/25 04:53:06;;;;;;;6.19;5.69;;;;;;;9.43;76.30;101342.53;463102;114;922903;-77
2022/10/25 04:54:11;;;;;;;4.01;3.71;;;;;;;9.45;76.39;101340.48;463041;114;922488;-76
2022/10/25 04:55:14;;;;;;;3.86;3.48;;;;;;;9.46;76.32;101341.32;462824;114;922536;-76
2022/10/25 04:56:17;;;;;;;4.01;3.73;;;;;;;9.48;76.32;101339.27;463068;114;922829;-76
2022/10/25 04:57:20;;;;;;;3.79;3.50;;;;;;;9.49;76.32;101336.34;463077;114;922556;-77
2022/10/25 04:58:24;;;;;;;4.20;3.90;;;;;;;9.50;76.33;101343.47;463100;114;922949;-74
2022/10/25 04:59:28;;;;;;;4.09;3.79;;;;;;;9.52;76.36;101348.73;462144;114;922732;-75
2022/10/25 05:00:31;;;;;;;4.17;3.87;;;;;;;9.53;76.29;101348.55;463055;114;922452;-75
2022/10/25 05:01:35;;;;;;;4.19;3.89;;;;;;;9.55;76.30;101346.47;463039;114;923257;-75
2022/10/25 05:02:39;;;;;;;4.76;4.45;;;;;;;9.57;76.23;101341.69;462889;114;922490;-75
2022/10/25 05:03:42;;;;;;;4.42;4.12;;;;;;;9.59;76.23;101344.23;463063;114;922482;-78
2022/10/25 05:04:46;;;;;;;4.61;4.21;;;;;;;9.59;76.18;101341.51;463056;114;922988;-76
2022/10/25 05:05:49;;;;;;;4.11;3.70;;;;;;;9.60;76.25;101345.89;463141;114;922938;-77
2022/10/25 05:06:52;;;;;;;4.91;4.56;;;;;;;9.62;76.10;101349.28;463094;114;922489;-76